Time;durP1;ratioP1;P1;durP2;ratioP2;P2;SDS_P1;SDS_P2;PMS_P1;PMS_P2;Temp;Humidity;BMP_temperature;BMP_pressure;BME280_temperature;BME280_humidity;BME280_pressure;Samples;Min_cycle;Max_cycle;Signal;HPM_P1;HPM_P2
2022/06/28 00:00:57;;;;;;;;;;;13.80;99.90;;;;;;5030277;28;19921;-74
2022/06/28 00:03:23;;;;;;;;;;;13.90;99.90;;;;;;5034649;28;19924;-74
2022/06/28 00:05:48;;;;;;;;;;;13.80;99.90;;;;;;5037056;28;19945;-74
2022/06/28 00:08:14;;;;;;;;;;;13.80;99.90;;;;;;5036512;28;19952;-75
2022/06/28 00:10:39;;;;;;;;;;;13.80;99.90;;;;;;5034846;28;20019;-74
2022/06/28 00:13:05;;;;;;;;;;;13.80;99.90;;;;;;5035372;28;20308;-74
2022/06/28 00:18:33;;;;;;;;;;;13.80;99.90;;;;;;4993138;28;19914;-74
2022/06/28 00:20:59;;;;;;;;;;;13.80;99.90;;;;;;4992748;28;19918;-74
2022/06/28 00:23:24;;;;;;;;;;;13.70;99.90;;;;;;4990001;28;19928;-74
2022/06/28 00:25:50;;;;;;;;;;;13.70;99.90;;;;;;4991506;28;19925;-74
2022/06/28 00:28:15;;;;;;;;;;;13.70;99.90;;;;;;4994538;28;19941;-79
2022/06/28 00:30:41;;;;;;;;;;;13.70;99.90;;;;;;4990345;28;19918;-74
2022/06/28 00:33:06;;;;;;;;;;;13.70;99.90;;;;;;4993173;28;19914;-74
2022/06/28 00:35:32;;;;;;;;;;;13.70;99.90;;;;;;4993209;28;19922;-74
2022/06/28 00:37:57;;;;;;;;;;;13.70;99.90;;;;;;4991453;28;19914;-74
2022/06/28 00:40:23;;;;;;;;;;;13.60;99.90;;;;;;4993372;28;20001;-74
2022/06/28 00:42:49;;;;;;;;;;;13.60;99.90;;;;;;4995822;28;19914;-74
2022/06/28 00:45:14;;;;;;;;;;;13.60;99.90;;;;;;4987330;28;19918;-74
2022/06/28 00:47:40;;;;;;;;;;;13.60;99.90;;;;;;4992409;28;19941;-74
2022/06/28 00:50:06;;;;;;;;;;;13.60;99.90;;;;;;4996166;28;19969;-73
2022/06/28 00:52:31;;;;;;;;;;;13.60;99.90;;;;;;5007273;28;19921;-74
2022/06/28 00:54:57;;;;;;;;;;;13.50;99.90;;;;;;5036202;28;19917;-80
2022/06/28 00:57:23;;;;;;;;;;;13.50;99.90;;;;;;5034184;28;19917;-74
2022/06/28 00:59:48;;;;;;;;;;;13.50;99.90;;;;;;5018581;28;19921;-75
2022/06/28 01:02:14;;;;;;;;;;;13.40;99.90;;;;;;5029242;28;19924;-74
2022/06/28 01:04:40;;;;;;;;;;;13.50;99.90;;;;;;5034362;28;19924;-74
2022/06/28 01:07:06;;;;;;;;;;;13.50;99.90;;;;;;5034854;28;19913;-74
2022/06/28 01:09:31;;;;;;;;;;;13.50;99.90;;;;;;5036575;28;20425;-73
2022/06/28 01:11:57;;;;;;;;;;;13.40;99.90;;;;;;5035642;28;20263;-80
2022/06/28 01:14:23;;;;;;;;;;;13.50;99.90;;;;;;5036106;28;20260;-74
2022/06/28 01:16:49;;;;;;;;;;;13.50;99.90;;;;;;5032991;28;19920;-74
2022/06/28 01:19:16;;;;;;;;;;;13.50;99.90;;;;;;5035705;28;19921;-74
2022/06/28 01:21:42;;;;;;;;;;;13.50;99.90;;;;;;5033920;28;19913;-73
2022/06/28 01:24:08;;;;;;;;;;;13.40;99.90;;;;;;5034708;28;19913;-74
2022/06/28 01:26:34;;;;;;;;;;;13.40;99.90;;;;;;5033791;28;19919;-74
2022/06/28 01:29:00;;;;;;;;;;;13.40;99.90;;;;;;5031640;28;20012;-74
2022/06/28 01:31:25;;;;;;;;;;;13.40;99.90;;;;;;5028950;28;19916;-74
2022/06/28 01:33:52;;;;;;;;;;;13.40;99.90;;;;;;5030409;28;20347;-74
2022/06/28 01:36:18;;;;;;;;;;;13.40;99.90;;;;;;5031056;28;19927;-73
2022/06/28 01:38:43;;;;;;;;;;;13.40;99.90;;;;;;5024101;28;20000;-74
2022/06/28 01:41:32;;;;;;;;;;;13.40;99.90;;;;;;5066839;28;19968;-74
2022/06/28 01:43:56;;;;;;;;;;;13.30;99.90;;;;;;5024130;28;19992;-74
2022/06/28 01:46:21;;;;;;;;;;;13.20;99.90;;;;;;5024614;28;19917;-74
2022/06/28 01:48:47;;;;;;;;;;;13.30;99.90;;;;;;5032830;28;19992;-74
2022/06/28 01:51:12;;;;;;;;;;;13.20;99.90;;;;;;5032775;28;19919;-78
2022/06/28 01:53:38;;;;;;;;;;;13.20;99.90;;;;;;5035316;28;19979;-74
2022/06/28 01:56:04;;;;;;;;;;;13.20;99.90;;;;;;5028094;28;19913;-74
2022/06/28 01:58:29;;;;;;;;;;;13.10;99.90;;;;;;5030000;28;19971;-74
2022/06/28 02:00:55;;;;;;;;;;;13.20;99.90;;;;;;5033918;28;19968;-74
2022/06/28 02:03:20;;;;;;;;;;;13.20;99.90;;;;;;5035006;28;19959;-74
2022/06/28 02:05:46;;;;;;;;;;;13.20;99.90;;;;;;5033498;28;19952;-80
2022/06/28 02:08:12;;;;;;;;;;;13.20;99.90;;;;;;5033107;28;19948;-81
2022/06/28 02:10:37;;;;;;;;;;;13.20;99.90;;;;;;5061316;28;19920;-74
2022/06/28 02:13:03;;;;;;;;;;;13.20;99.90;;;;;;5031096;28;20008;-74
2022/06/28 02:15:28;;;;;;;;;;;13.20;99.90;;;;;;5032724;28;19967;-74
2022/06/28 02:17:56;;;;;;;;;;;13.20;99.90;;;;;;5028451;28;20288;-74
2022/06/28 02:20:22;;;;;;;;;;;13.20;99.90;;;;;;5028505;28;19917;-74
2022/06/28 02:22:47;;;;;;;;;;;13.20;99.90;;;;;;5015499;28;19920;-74
2022/06/28 02:25:13;;;;;;;;;;;13.20;99.90;;;;;;5062730;28;19913;-75
2022/06/28 02:27:38;;;;;;;;;;;13.20;99.90;;;;;;5066121;28;19940;-74
2022/06/28 02:30:04;;;;;;;;;;;13.20;99.90;;;;;;5034289;28;19914;-74
2022/06/28 02:32:30;;;;;;;;;;;13.20;99.90;;;;;;5033267;28;19913;-74
2022/06/28 02:40:27;;;;;;;;;;;13.20;99.90;;;;;;5015361;28;20036;-74
2022/06/28 02:42:53;;;;;;;;;;;13.20;99.90;;;;;;5043684;28;19924;-74
2022/06/28 02:45:19;;;;;;;;;;;13.10;99.90;;;;;;5033764;28;20004;-74
2022/06/28 02:47:45;;;;;;;;;;;13.10;99.90;;;;;;5029505;28;20267;-75
2022/06/28 02:50:11;;;;;;;;;;;13.00;99.90;;;;;;5033920;28;19963;-74
2022/06/28 02:52:36;;;;;;;;;;;13.00;99.90;;;;;;5034197;28;19919;-73
2022/06/28 02:55:02;;;;;;;;;;;13.00;99.90;;;;;;5034626;28;20346;-74
2022/06/28 02:57:28;;;;;;;;;;;13.00;99.90;;;;;;5032620;28;19953;-74
2022/06/28 02:59:54;;;;;;;;;;;13.00;99.90;;;;;;5031697;28;20008;-74
2022/06/28 03:02:20;;;;;;;;;;;13.00;99.90;;;;;;5024588;28;20581;-74
2022/06/28 03:04:45;;;;;;;;;;;12.90;99.90;;;;;;5033991;28;19909;-74
2022/06/28 03:07:11;;;;;;;;;;;13.00;99.90;;;;;;5032741;28;19916;-73
2022/06/28 03:09:36;;;;;;;;;;;12.90;99.90;;;;;;5032989;28;19919;-74
2022/06/28 03:12:04;;;;;;;;;;;13.00;99.90;;;;;;5032725;28;19932;-74
2022/06/28 03:14:30;;;;;;;;;;;13.00;99.90;;;;;;5033609;28;20371;-74
2022/06/28 03:16:56;;;;;;;;;;;12.90;99.90;;;;;;5030791;28;19953;-74
2022/06/28 03:19:21;;;;;;;;;;;12.90;99.90;;;;;;5033818;28;20354;-74
2022/06/28 03:21:47;;;;;;;;;;;12.90;99.90;;;;;;5037687;28;19924;-83
2022/06/28 03:24:12;;;;;;;;;;;12.90;99.90;;;;;;5023928;28;19917;-74
2022/06/28 03:26:38;;;;;;;;;;;12.90;99.90;;;;;;5033191;28;20300;-74
2022/06/28 03:29:03;;;;;;;;;;;12.90;99.90;;;;;;5032476;28;19920;-74
2022/06/28 03:31:29;;;;;;;;;;;12.90;99.90;;;;;;5033868;28;19920;-74
2022/06/28 03:33:54;;;;;;;;;;;12.80;99.90;;;;;;5030128;28;19917;-74
2022/06/28 03:36:20;;;;;;;;;;;12.80;99.90;;;;;;5033057;28;19913;-74
2022/06/28 03:38:45;;;;;;;;;;;12.90;99.90;;;;;;5034416;28;20300;-74
2022/06/28 03:41:11;;;;;;;;;;;12.90;99.90;;;;;;5033660;28;19921;-74
2022/06/28 03:43:36;;;;;;;;;;;12.90;99.90;;;;;;5026575;28;19921;-74
2022/06/28 03:46:02;;;;;;;;;;;13.00;99.90;;;;;;5027697;28;19922;-74
2022/06/28 03:48:27;;;;;;;;;;;13.00;99.90;;;;;;5032549;28;19913;-81
2022/06/28 03:50:53;;;;;;;;;;;13.10;99.90;;;;;;5033430;28;19909;-75
2022/06/28 03:53:19;;;;;;;;;;;13.10;99.90;;;;;;5032544;28;19957;-74
2022/06/28 03:55:44;;;;;;;;;;;13.10;99.90;;;;;;5027438;28;19967;-73
2022/06/28 03:58:10;;;;;;;;;;;13.10;99.90;;;;;;5032276;28;19916;-74
2022/06/28 04:00:35;;;;;;;;;;;13.10;99.90;;;;;;5024746;28;20316;-80
2022/06/28 04:03:01;;;;;;;;;;;13.10;99.90;;;;;;5033810;28;20224;-74
2022/06/28 04:05:27;;;;;;;;;;;13.10;99.90;;;;;;5030509;28;19921;-74
2022/06/28 04:07:53;;;;;;;;;;;13.10;99.90;;;;;;5021667;28;19917;-74
2022/06/28 04:10:19;;;;;;;;;;;13.00;99.90;;;;;;5030762;28;19917;-74
2022/06/28 04:12:44;;;;;;;;;;;13.00;99.90;;;;;;5031566;28;20260;-74
2022/06/28 04:15:10;;;;;;;;;;;13.00;99.90;;;;;;5032336;28;20001;-74
2022/06/28 04:17:36;;;;;;;;;;;13.10;99.90;;;;;;5025691;28;19921;-74
2022/06/28 04:20:02;;;;;;;;;;;13.10;99.90;;;;;;5033063;28;20240;-75
2022/06/28 04:22:27;;;;;;;;;;;13.20;99.90;;;;;;5033525;28;20294;-75
2022/06/28 04:24:53;;;;;;;;;;;13.20;99.90;;;;;;5035279;28;20003;-74
2022/06/28 04:27:18;;;;;;;;;;;13.20;99.90;;;;;;5028183;28;20019;-74
2022/06/28 04:29:44;;;;;;;;;;;13.30;99.90;;;;;;5025357;28;20003;-74
2022/06/28 04:32:09;;;;;;;;;;;13.30;99.90;;;;;;5031255;28;19968;-74
2022/06/28 04:34:35;;;;;;;;;;;13.40;99.90;;;;;;5017578;28;20292;-74
2022/06/28 04:37:00;;;;;;;;;;;13.40;99.90;;;;;;5031163;28;20216;-74
2022/06/28 04:39:26;;;;;;;;;;;13.40;99.90;;;;;;5024856;28;20281;-74
2022/06/28 04:41:51;;;;;;;;;;;13.50;99.90;;;;;;5030081;28;19925;-82
2022/06/28 04:44:17;;;;;;;;;;;13.50;99.90;;;;;;5034121;28;20292;-74
2022/06/28 04:46:42;;;;;;;;;;;13.50;99.90;;;;;;5025579;28;20324;-74
2022/06/28 04:49:08;;;;;;;;;;;13.50;99.90;;;;;;5035813;28;20320;-74
2022/06/28 04:51:33;;;;;;;;;;;13.60;99.90;;;;;;5028397;28;19925;-74
2022/06/28 04:53:59;;;;;;;;;;;13.60;99.90;;;;;;5032262;28;19979;-74
2022/06/28 04:56:24;;;;;;;;;;;13.70;99.90;;;;;;5046436;28;19913;-75
2022/06/28 04:58:50;;;;;;;;;;;13.70;99.90;;;;;;5028156;28;19985;-84
2022/06/28 05:01:17;;;;;;;;;;;13.70;99.90;;;;;;5036167;28;19917;-75
2022/06/28 05:03:42;;;;;;;;;;;13.80;99.90;;;;;;5032887;28;20003;-75
2022/06/28 05:06:08;;;;;;;;;;;13.80;99.90;;;;;;5028885;28;20000;-75
2022/06/28 05:08:33;;;;;;;;;;;13.90;99.90;;;;;;5032014;28;19985;-74
2022/06/28 05:10:59;;;;;;;;;;;13.90;99.90;;;;;;5032022;28;19921;-74
2022/06/28 05:13:25;;;;;;;;;;;13.90;99.90;;;;;;5032867;28;20346;-74
2022/06/28 05:15:50;;;;;;;;;;;14.00;99.90;;;;;;5036032;28;19913;-82
2022/06/28 05:18:16;;;;;;;;;;;14.10;99.90;;;;;;5033338;28;19956;-75
2022/06/28 05:20:41;;;;;;;;;;;14.10;99.90;;;;;;5034721;28;19963;-75
2022/06/28 05:23:07;;;;;;;;;;;14.10;99.90;;;;;;5021334;28;19909;-75
2022/06/28 05:25:32;;;;;;;;;;;14.20;99.90;;;;;;5033121;28;20303;-82
2022/06/28 05:27:58;;;;;;;;;;;14.30;99.90;;;;;;5032262;28;19945;-75
2022/06/28 05:30:24;;;;;;;;;;;14.40;99.90;;;;;;5034439;28;19999;-75
2022/06/28 05:32:49;;;;;;;;;;;14.40;99.90;;;;;;5033866;28;19962;-76
2022/06/28 05:35:14;;;;;;;;;;;14.50;99.90;;;;;;5033695;28;19946;-75
2022/06/28 05:37:40;;;;;;;;;;;14.50;99.90;;;;;;5032583;28;19948;-75
2022/06/28 05:40:06;;;;;;;;;;;14.50;99.90;;;;;;5028962;28;19967;-75
2022/06/28 05:42:31;;;;;;;;;;;14.50;99.90;;;;;;5067882;28;19948;-82
2022/06/28 05:44:57;;;;;;;;;;;14.50;99.90;;;;;;5021326;28;20325;-74
2022/06/28 05:47:22;;;;;;;;;;;14.60;99.90;;;;;;5029714;28;19924;-75
2022/06/28 05:49:48;;;;;;;;;;;14.60;99.90;;;;;;5036137;28;20585;-75
2022/06/28 05:52:13;;;;;;;;;;;14.70;99.90;;;;;;5033828;28;19928;-75
2022/06/28 05:54:39;;;;;;;;;;;14.80;99.90;;;;;;5031906;28;20221;-75
2022/06/28 05:57:05;;;;;;;;;;;14.90;99.90;;;;;;5026429;28;20434;-75
2022/06/28 05:59:32;;;;;;;;;;;14.80;99.90;;;;;;5035803;28;19960;-77
2022/06/28 06:01:57;;;;;;;;;;;14.90;99.90;;;;;;5024283;28;19924;-75
2022/06/28 06:04:25;;;;;;;;;;;14.90;99.90;;;;;;5031961;28;19917;-75
2022/06/28 06:06:51;;;;;;;;;;;15.00;99.90;;;;;;5010006;28;19971;-75
2022/06/28 06:09:16;;;;;;;;;;;15.00;99.90;;;;;;5013969;28;20308;-75
2022/06/28 06:11:44;;;;;;;;;;;15.00;99.90;;;;;;5027296;28;19991;-75
2022/06/28 06:14:10;;;;;;;;;;;15.10;99.90;;;;;;5032372;28;19979;-79
2022/06/28 06:16:35;;;;;;;;;;;15.10;99.90;;;;;;5031903;28;20324;-75
2022/06/28 06:19:01;;;;;;;;;;;15.20;99.90;;;;;;5031283;28;19954;-75
2022/06/28 06:21:26;;;;;;;;;;;15.20;99.90;;;;;;5062219;28;19929;-74
2022/06/28 06:23:52;;;;;;;;;;;15.20;99.90;;;;;;5031203;28;20312;-74
2022/06/28 06:26:17;;;;;;;;;;;15.20;99.90;;;;;;5027519;28;19971;-75
2022/06/28 06:28:43;;;;;;;;;;;15.20;99.90;;;;;;5030836;28;19921;-77
2022/06/28 06:31:09;;;;;;;;;;;15.30;99.90;;;;;;5030577;28;20220;-74
2022/06/28 06:33:35;;;;;;;;;;;15.30;99.90;;;;;;5030941;28;19924;-74
2022/06/28 06:36:02;;;;;;;;;;;15.40;99.90;;;;;;5033831;28;20263;-74
2022/06/28 06:38:28;;;;;;;;;;;15.50;99.90;;;;;;5030087;28;20217;-81
2022/06/28 06:40:55;;;;;;;;;;;15.50;99.90;;;;;;5027148;28;19928;-76
2022/06/28 06:43:21;;;;;;;;;;;15.60;99.90;;;;;;5031410;28;19963;-75
2022/06/28 06:45:47;;;;;;;;;;;15.60;99.90;;;;;;5031063;28;19913;-74
2022/06/28 06:48:12;;;;;;;;;;;15.70;99.90;;;;;;5028358;28;20028;-75
2022/06/28 06:50:38;;;;;;;;;;;15.80;99.90;;;;;;5029285;28;19982;-80
2022/06/28 06:53:04;;;;;;;;;;;15.80;99.90;;;;;;5033453;28;20036;-75
2022/06/28 06:55:29;;;;;;;;;;;15.80;99.90;;;;;;5029718;28;19909;-74
2022/06/28 06:57:55;;;;;;;;;;;15.90;99.90;;;;;;5028360;28;19963;-75
2022/06/28 07:00:21;;;;;;;;;;;16.00;99.90;;;;;;5028887;28;19954;-74
2022/06/28 07:02:47;;;;;;;;;;;16.00;99.90;;;;;;5030387;28;19920;-79
2022/06/28 07:05:12;;;;;;;;;;;16.10;99.90;;;;;;5029711;28;19917;-75
2022/06/28 07:07:39;;;;;;;;;;;16.20;99.90;;;;;;5032265;28;19913;-79
2022/06/28 07:10:05;;;;;;;;;;;16.20;99.90;;;;;;5031132;28;20602;-74
2022/06/28 07:12:30;;;;;;;;;;;16.30;99.90;;;;;;5032121;28;19932;-74
2022/06/28 07:14:56;;;;;;;;;;;16.40;99.90;;;;;;5033520;28;19994;-74
2022/06/28 07:17:21;;;;;;;;;;;16.50;99.90;;;;;;5027213;28;19916;-75
2022/06/28 07:19:47;;;;;;;;;;;16.60;99.90;;;;;;5034232;28;19917;-75
2022/06/28 07:22:13;;;;;;;;;;;16.70;99.90;;;;;;5031155;28;19917;-79
2022/06/28 07:24:38;;;;;;;;;;;16.80;99.90;;;;;;5019845;28;19948;-76
2022/06/28 07:27:04;;;;;;;;;;;16.80;99.90;;;;;;5027167;28;20331;-77
2022/06/28 07:29:29;;;;;;;;;;;17.00;99.90;;;;;;5033275;28;20232;-76
2022/06/28 07:31:56;;;;;;;;;;;17.10;99.90;;;;;;5032670;28;20278;-75
2022/06/28 07:34:22;;;;;;;;;;;17.10;99.90;;;;;;5031141;28;20248;-75
2022/06/28 07:36:48;;;;;;;;;;;17.20;99.90;;;;;;5032328;28;19913;-75
2022/06/28 07:39:13;;;;;;;;;;;17.30;99.90;;;;;;5021525;28;19917;-76
2022/06/28 07:41:39;;;;;;;;;;;17.40;99.90;;;;;;5030216;28;19921;-75
2022/06/28 07:44:05;;;;;;;;;;;17.50;99.90;;;;;;5018034;28;19917;-78
2022/06/28 07:46:31;;;;;;;;;;;17.60;99.90;;;;;;5022645;28;19956;-75
2022/06/28 07:48:56;;;;;;;;;;;17.70;99.90;;;;;;5028339;28;20228;-76
2022/06/28 07:54:06;;;;;;;;;;;17.80;99.90;;;;;;5030681;28;20243;-78
2022/06/28 07:56:31;;;;;;;;;;;18.20;99.90;;;;;;5032717;28;19917;-76
2022/06/28 07:58:57;;;;;;;;;;;18.60;99.90;;;;;;4154237;28;10000241;-77
2022/06/28 08:01:22;;;;;;;;;;;18.80;99.90;;;;;;5033799;28;19929;-77
2022/06/28 08:03:48;;;;;;;;;;;19.00;99.90;;;;;;5032161;28;19917;-75
2022/06/28 08:06:14;;;;;;;;;;;19.30;99.90;;;;;;5028386;28;20607;-75
2022/06/28 08:08:40;;;;;;;;;;;19.60;99.90;;;;;;5034336;28;19924;-76
2022/06/28 08:11:05;;;;;;;;;;;20.10;99.90;;;;;;5052451;28;20019;-76
2022/06/28 08:13:31;;;;;;;;;;;20.00;99.90;;;;;;5022516;28;19921;-76
2022/06/28 08:15:59;;;;;;;;;;;19.90;99.90;;;;;;5028027;28;19918;-74
2022/06/28 08:18:25;;;;;;;;;;;20.10;99.90;;;;;;5028983;28;19928;-75
2022/06/28 08:20:50;;;;;;;;;;;20.40;99.90;;;;;;5033146;28;20239;-79
2022/06/28 08:23:19;;;;;;;;;;;20.90;99.90;;;;;;5033795;28;20459;-75
2022/06/28 08:25:46;;;;;;;;;;;21.40;99.90;;;;;;5023619;28;19917;-75
2022/06/28 08:28:13;;;;;;;;;;;21.70;99.90;;;;;;5037289;28;19909;-76
2022/06/28 08:30:39;;;;;;;;;;;21.90;99.90;;;;;;5027394;28;19917;-75
2022/06/28 08:33:05;;;;;;;;;;;22.10;99.90;;;;;;5033591;28;19916;-78
2022/06/28 08:35:30;;;;;;;;;;;22.40;99.90;;;;;;5032473;28;19924;-77
2022/06/28 08:37:56;;;;;;;;;;;22.60;99.90;;;;;;5029826;28;19933;-79
2022/06/28 08:40:25;;;;;;;;;;;23.00;99.90;;;;;;5014863;28;19929;-76
2022/06/28 08:42:55;;;;;;;;;;;23.10;99.90;;;;;;5031263;28;19924;-75
2022/06/28 08:45:21;;;;;;;;;;;23.10;99.90;;;;;;5031779;28;19913;-74
2022/06/28 08:47:49;;;;;;;;;;;23.30;99.90;;;;;;5028019;28;19929;-79
2022/06/28 08:50:17;;;;;;;;;;;23.60;99.90;;;;;;5032936;28;20328;-74
2022/06/28 08:52:43;;;;;;;;;;;24.00;99.90;;;;;;5030995;28;20401;-84
2022/06/28 08:55:09;;;;;;;;;;;24.30;99.90;;;;;;5032289;28;19913;-79
2022/06/28 08:57:35;;;;;;;;;;;24.30;99.90;;;;;;5031407;28;20224;-74
2022/06/28 09:00:04;;;;;;;;;;;24.40;99.90;;;;;;5032396;28;19917;-74
2022/06/28 09:02:29;;;;;;;;;;;24.20;99.90;;;;;;5033548;28;19935;-79
2022/06/28 09:04:56;;;;;;;;;;;24.00;99.90;;;;;;5031897;28;20320;-77
2022/06/28 09:07:21;;;;;;;;;;;23.40;99.90;;;;;;5029279;28;19924;-74
2022/06/28 09:09:47;;;;;;;;;;;23.00;99.90;;;;;;5029395;28;19917;-75
2022/06/28 09:12:13;;;;;;;;;;;22.80;99.90;;;;;;5030790;28;19929;-74
2022/06/28 09:14:39;;;;;;;;;;;22.90;99.90;;;;;;5031353;28;19917;-75
2022/06/28 09:17:16;;;;;;;;;;;22.50;99.90;;;;;;5029549;28;19948;-74
2022/06/28 09:19:42;;;;;;;;;;;22.60;99.90;;;;;;5033095;28;19921;-74
2022/06/28 09:22:08;;;;;;;;;;;22.60;99.90;;;;;;5031718;28;19913;-74
2022/06/28 09:24:34;;;;;;;;;;;23.10;99.90;;;;;;5032049;28;19921;-74
2022/06/28 09:27:06;;;;;;;;;;;23.60;99.90;;;;;;5026413;28;19955;-78
2022/06/28 09:29:52;;;;;;;;;;;24.30;99.50;;;;;;5064476;28;19917;-74
2022/06/28 09:32:24;;;;;;;;;;;24.40;99.60;;;;;;5029860;28;20331;-79
2022/06/28 09:34:54;;;;;;;;;;;24.20;99.90;;;;;;5030752;28;19921;-74
2022/06/28 09:37:33;;;;;;;;;;;24.40;99.90;;;;;;5030453;28;19960;-75
2022/06/28 09:40:08;;;;;;;;;;;24.40;98.70;;;;;;5013005;28;19917;-74
2022/06/28 09:42:33;;;;;;;;;;;24.40;99.90;;;;;;5025056;28;19921;-74
2022/06/28 09:44:59;;;;;;;;;;;24.70;99.90;;;;;;5026028;28;19959;-74
2022/06/28 09:47:25;;;;;;;;;;;24.50;99.90;;;;;;5024475;28;20012;-75
2022/06/28 09:49:50;;;;;;;;;;;24.10;99.90;;;;;;5028613;28;20076;-75
2022/06/28 09:52:19;;;;;;;;;;;23.90;99.40;;;;;;5033007;28;19917;-74
2022/06/28 09:54:46;;;;;;;;;;;23.50;99.90;;;;;;5022219;28;20012;-74
2022/06/28 09:57:12;;;;;;;;;;;23.50;99.90;;;;;;5022596;28;20268;-76
2022/06/28 09:59:38;;;;;;;;;;;23.80;99.90;;;;;;5011377;28;19941;-78
2022/06/28 10:02:03;;;;;;;;;;;24.30;99.90;;;;;;5030414;28;20312;-77
2022/06/28 10:04:29;;;;;;;;;;;24.70;99.90;;;;;;5031787;28;20016;-75
2022/06/28 10:06:55;;;;;;;;;;;25.10;98.90;;;;;;5019282;28;19924;-76
2022/06/28 10:09:21;;;;;;;;;;;25.30;99.20;;;;;;5030985;28;19919;-75
2022/06/28 10:17:16;;;;;;;;;;;25.60;98.90;;;;;;5029642;28;19924;-76
2022/06/28 10:19:42;;;;;;;;;;;25.70;97.70;;;;;;5030670;28;20240;-75
2022/06/28 10:22:10;;;;;;;;;;;25.70;97.60;;;;;;5030745;28;19917;-75
2022/06/28 10:24:49;;;;;;;;;;;25.60;98.20;;;;;;5030626;28;19917;-80
2022/06/28 10:27:15;;;;;;;;;;;25.20;97.80;;;;;;5024920;28;20217;-75
2022/06/28 10:30:08;;;;;;;;;;;24.80;99.30;;;;;;5010906;28;19917;-74
2022/06/28 10:32:44;;;;;;;;;;;24.70;98.40;;;;;;5029668;28;19920;-76
2022/06/28 10:35:10;;;;;;;;;;;24.40;99.30;;;;;;5031976;28;19913;-81
2022/06/28 10:37:36;;;;;;;;;;;24.90;98.90;;;;;;5023151;28;20390;-74
2022/06/28 10:40:28;;;;;;;;;;;25.20;99.60;;;;;;5057879;28;19944;-74
2022/06/28 10:42:54;;;;;;;;;;;24.80;98.50;;;;;;5027739;28;19921;-75
2022/06/28 10:45:20;;;;;;;;;;;24.80;98.80;;;;;;5031325;28;19927;-74
2022/06/28 10:48:05;;;;;;;;;;;25.00;98.10;;;;;;5026014;28;19939;-82
2022/06/28 10:50:31;;;;;;;;;;;25.20;99.50;;;;;;5012307;28;20305;-74
2022/06/28 10:53:02;;;;;;;;;;;25.60;97.50;;;;;;5023428;28;19925;-80
2022/06/28 10:55:28;;;;;;;;;;;25.80;98.00;;;;;;5031606;28;19913;-74
2022/06/28 10:58:06;;;;;;;;;;;25.70;97.40;;;;;;5029815;28;19921;-75
2022/06/28 11:00:34;;;;;;;;;;;25.40;96.20;;;;;;5017575;28;19917;-76
2022/06/28 11:03:01;;;;;;;;;;;25.50;97.80;;;;;;5031084;28;20011;-82
2022/06/28 11:05:44;;;;;;;;;;;25.70;97.70;;;;;;5028217;28;19918;-79
2022/06/28 11:08:11;;;;;;;;;;;26.00;97.70;;;;;;5012258;28;20379;-74
2022/06/28 11:10:37;;;;;;;;;;;25.70;96.90;;;;;;5031205;28;19913;-74
2022/06/28 11:13:19;;;;;;;;;;;26.10;96.00;;;;;;5028026;28;19921;-74
2022/06/28 11:15:44;;;;;;;;;;;26.40;96.80;;;;;;5026482;28;19956;-78
2022/06/28 11:18:17;;;;;;;;;;;26.70;95.70;;;;;;5022205;28;20269;-74
2022/06/28 11:20:42;;;;;;;;;;;26.50;94.90;;;;;;5030607;28;20301;-74
2022/06/28 11:23:08;;;;;;;;;;;26.60;96.80;;;;;;5030506;28;19925;-74
2022/06/28 11:28:20;;;;;;;;;;;26.90;96.00;;;;;;5033116;28;19978;-74
2022/06/28 11:30:46;;;;;;;;;;;26.80;95.60;;;;;;5033901;28;20375;-74
2022/06/28 11:33:11;;;;;;;;;;;26.60;95.70;;;;;;5034006;28;19936;-75
2022/06/28 11:35:37;;;;;;;;;;;26.80;95.70;;;;;;5029520;28;19917;-75
2022/06/28 11:38:09;;;;;;;;;;;26.60;95.90;;;;;;5031799;28;19991;-74
2022/06/28 11:40:42;;;;;;;;;;;26.70;97.00;;;;;;5033841;28;20369;-75
2022/06/28 11:43:12;;;;;;;;;;;26.80;96.80;;;;;;5029175;28;19921;-74
2022/06/28 11:45:39;;;;;;;;;;;27.10;95.50;;;;;;5025048;28;19920;-76
2022/06/28 11:48:05;;;;;;;;;;;26.90;94.00;;;;;;5011967;28;20127;-75
2022/06/28 11:50:41;;;;;;;;;;;26.90;95.90;;;;;;5034417;28;19935;-76
2022/06/28 11:53:07;;;;;;;;;;;26.90;95.90;;;;;;5034210;28;19913;-77
2022/06/28 11:55:47;;;;;;;;;;;27.00;95.80;;;;;;5032904;28;19920;-77
2022/06/28 11:58:14;;;;;;;;;;;27.00;95.30;;;;;;5066377;28;19923;-78
2022/06/28 12:01:00;;;;;;;;;;;27.00;96.40;;;;;;5037631;28;19917;-75
2022/06/28 12:03:26;;;;;;;;;;;27.40;92.80;;;;;;5022286;28;20197;-77
2022/06/28 12:05:57;;;;;;;;;;;27.20;94.00;;;;;;5032872;28;19914;-75
2022/06/28 12:08:40;;;;;;;;;;;26.80;95.10;;;;;;5034657;28;20314;-78
2022/06/28 12:11:06;;;;;;;;;;;26.80;95.90;;;;;;5028476;28;19932;-79
2022/06/28 12:13:31;;;;;;;;;;;27.10;95.70;;;;;;5035478;28;19913;-78
2022/06/28 12:15:58;;;;;;;;;;;26.80;95.30;;;;;;5036855;28;20208;-76
2022/06/28 12:18:23;;;;;;;;;;;27.10;94.40;;;;;;5034580;28;19918;-78
2022/06/28 12:20:57;;;;;;;;;;;27.30;93.60;;;;;;5032105;28;19918;-78
2022/06/28 12:23:23;;;;;;;;;;;27.10;94.00;;;;;;5031037;28;20555;-78
2022/06/28 12:25:59;;;;;;;;;;;27.20;95.80;;;;;;5032813;28;19917;-76
2022/06/28 12:28:24;;;;;;;;;;;27.30;95.20;;;;;;5035552;28;19917;-77
2022/06/28 12:30:50;;;;;;;;;;;27.50;94.30;;;;;;5036018;28;20211;-77
2022/06/28 12:33:15;;;;;;;;;;;27.40;95.20;;;;;;5037537;28;19913;-80
2022/06/28 12:35:41;;;;;;;;;;;27.40;94.70;;;;;;5035618;28;19913;-79
2022/06/28 12:38:07;;;;;;;;;;;27.50;93.70;;;;;;5031514;28;19909;-78
2022/06/28 12:40:32;;;;;;;;;;;27.30;94.40;;;;;;5035468;28;20374;-79
2022/06/28 12:42:58;;;;;;;;;;;27.30;93.40;;;;;;5034029;28;19921;-76
2022/06/28 12:45:23;;;;;;;;;;;27.20;92.70;;;;;;5035154;28;20346;-75
2022/06/28 12:47:49;;;;;;;;;;;27.20;93.30;;;;;;5023081;28;19924;-76
2022/06/28 12:50:16;;;;;;;;;;;27.00;94.00;;;;;;5035372;28;19959;-78
2022/06/28 12:52:42;;;;;;;;;;;26.80;94.20;;;;;;5036333;28;20316;-76
2022/06/28 12:55:10;;;;;;;;;;;26.70;95.60;;;;;;5030761;28;19940;-75
2022/06/28 12:57:35;;;;;;;;;;;26.80;94.00;;;;;;5035045;28;20263;-77
2022/06/28 13:00:02;;;;;;;;;;;27.20;92.80;;;;;;5029684;28;19909;-79
2022/06/28 13:02:28;;;;;;;;;;;27.10;93.10;;;;;;5035585;28;19909;-79
2022/06/28 13:04:53;;;;;;;;;;;27.00;93.50;;;;;;5032572;28;19962;-78
2022/06/28 13:07:20;;;;;;;;;;;26.90;93.80;;;;;;5035448;28;20263;-78
2022/06/28 13:09:47;;;;;;;;;;;26.90;92.40;;;;;;5026307;28;19910;-81
2022/06/28 13:12:14;;;;;;;;;;;27.10;94.10;;;;;;5027949;28;19925;-78
2022/06/28 13:14:40;;;;;;;;;;;27.20;93.60;;;;;;5036257;28;19913;-75
2022/06/28 13:17:05;;;;;;;;;;;27.30;90.40;;;;;;5033015;28;19940;-79
2022/06/28 13:19:31;;;;;;;;;;;27.00;93.80;;;;;;5034673;28;19913;-79
2022/06/28 13:21:56;;;;;;;;;;;26.90;94.70;;;;;;5029633;28;19963;-76
2022/06/28 13:24:22;;;;;;;;;;;26.90;93.00;;;;;;5036689;28;19960;-78
2022/06/28 13:26:47;;;;;;;;;;;27.00;93.20;;;;;;5035565;28;19921;-75
2022/06/28 13:29:13;;;;;;;;;;;27.20;93.20;;;;;;5032423;28;19979;-76
2022/06/28 13:31:39;;;;;;;;;;;27.10;91.30;;;;;;5036253;28;19913;-77
2022/06/28 13:34:04;;;;;;;;;;;27.00;91.60;;;;;;5067752;28;19921;-77
2022/06/28 13:36:34;;;;;;;;;;;27.10;92.70;;;;;;5035750;28;19917;-78
2022/06/28 13:39:00;;;;;;;;;;;26.80;93.00;;;;;;5031767;28;19917;-75
2022/06/28 13:41:27;;;;;;;;;;;27.10;93.50;;;;;;5035218;28;19971;-76
2022/06/28 13:43:53;;;;;;;;;;;27.20;91.50;;;;;;5033887;28;20193;-76
2022/06/28 13:46:18;;;;;;;;;;;27.20;92.00;;;;;;5029510;28;19936;-75
2022/06/28 13:48:44;;;;;;;;;;;27.10;93.30;;;;;;5033811;28;19924;-75
2022/06/28 13:51:09;;;;;;;;;;;27.00;93.70;;;;;;5034310;28;20225;-76
2022/06/28 13:53:35;;;;;;;;;;;26.50;93.30;;;;;;5034283;28;19913;-77
2022/06/28 13:56:01;;;;;;;;;;;26.60;94.00;;;;;;5024248;28;19956;-76
2022/06/28 13:58:29;;;;;;;;;;;26.70;93.30;;;;;;5033234;28;19913;-76
2022/06/28 14:00:57;;;;;;;;;;;27.00;93.10;;;;;;5033973;28;20315;-75
2022/06/28 14:03:23;;;;;;;;;;;26.90;90.10;;;;;;5035351;28;19913;-75
2022/06/28 14:05:48;;;;;;;;;;;26.80;91.00;;;;;;5035290;28;19920;-77
2022/06/28 14:08:14;;;;;;;;;;;26.60;93.50;;;;;;5032655;28;19917;-77
2022/06/28 14:10:40;;;;;;;;;;;26.60;93.10;;;;;;5035534;28;20609;-77
2022/06/28 14:13:05;;;;;;;;;;;26.70;93.30;;;;;;5034448;28;19963;-78
2022/06/28 14:15:31;;;;;;;;;;;26.90;93.40;;;;;;5034584;28;19913;-77
2022/06/28 14:17:57;;;;;;;;;;;26.90;93.40;;;;;;5034141;28;20300;-75
2022/06/28 14:20:23;;;;;;;;;;;27.00;93.40;;;;;;5034181;28;20092;-76
2022/06/28 14:22:50;;;;;;;;;;;27.10;93.20;;;;;;5027015;28;20008;-76
2022/06/28 14:25:16;;;;;;;;;;;27.20;92.00;;;;;;5033177;28;20363;-77
2022/06/28 14:27:42;;;;;;;;;;;27.10;93.00;;;;;;5035005;28;19913;-75
2022/06/28 14:30:08;;;;;;;;;;;27.00;91.60;;;;;;5032261;28;20003;-78
2022/06/28 14:32:34;;;;;;;;;;;27.20;92.90;;;;;;5030178;28;19927;-75